Time;durP1;ratioP1;P1;durP2;ratioP2;P2;SDS_P1;SDS_P2;PMS_P1;PMS_P2;Temp;Humidity;BMP_temperature;BMP_pressure;BME280_temperature;BME280_humidity;BME280_pressure;Samples;Min_cycle;Max_cycle;Signal;HPM_P1;HPM_P2
2022/01/23 05:01:12;;;;;;;16.50;9.88;;;;;;;-6.31;100.00;95147.19;5671508;23;20182;-75
2022/01/23 05:06:27;;;;;;;12.25;8.88;;;;;;;-6.19;100.00;95161.75;4967419;28;20410;-76
2022/01/23 05:08:53;;;;;;;16.00;9.48;;;;;;;-6.18;100.00;95170.13;4950422;28;20114;-75
2022/01/23 05:11:19;;;;;;;13.63;9.35;;;;;;;-6.15;100.00;95183.41;4950808;28;20440;-76
2022/01/23 05:13:44;;;;;;;13.43;8.23;;;;;;;-6.20;100.00;95189.56;4965975;28;20027;-76
2022/01/23 05:16:11;;;;;;;12.68;9.77;;;;;;;-6.16;100.00;95188.50;4949343;28;20411;-76
2022/01/23 05:18:42;;;;;;;12.15;9.20;;;;;;;-6.05;100.00;95189.72;4966731;28;20038;-76
2022/01/23 05:23:37;;;;;;;13.35;9.57;;;;;;;-6.02;100.00;95203.88;4966292;28;20038;-75
2022/01/23 05:26:02;;;;;;;9.98;8.20;;;;;;;-6.05;100.00;95202.31;4949194;28;20019;-75
2022/01/23 05:28:28;;;;;;;11.27;8.90;;;;;;;-6.05;100.00;95199.78;4950638;28;20043;-75
2022/01/23 05:30:53;;;;;;;13.27;9.15;;;;;;;-6.04;100.00;95200.59;4949429;28;20575;-75
2022/01/23 05:33:19;;;;;;;13.57;9.82;;;;;;;-5.99;100.00;95193.66;4966094;28;20054;-75
2022/01/23 05:35:44;;;;;;;12.80;8.77;;;;;;;-6.11;100.00;95199.22;4966480;28;20081;-75
2022/01/23 05:38:10;;;;;;;16.20;9.40;;;;;;;-6.07;100.00;95193.97;4965077;28;20030;-75
2022/01/23 05:40:36;;;;;;;14.15;9.23;;;;;;;-6.08;100.00;95197.41;4966061;28;20123;-75
2022/01/23 05:43:01;;;;;;;13.55;9.23;;;;;;;-5.88;100.00;95194.03;4965090;28;20026;-75
2022/01/23 05:45:27;;;;;;;13.88;9.98;;;;;;;-5.99;100.00;95199.53;4965924;28;20043;-76
2022/01/23 05:47:52;;;;;;;12.27;8.63;;;;;;;-5.90;100.00;95194.06;4964793;28;20062;-76
2022/01/23 05:50:18;;;;;;;12.63;9.60;;;;;;;-5.76;100.00;95198.47;4966675;28;20399;-76
2022/01/23 05:52:43;;;;;;;12.27;9.30;;;;;;;-5.68;100.00;95214.06;4946290;29;20378;-76
2022/01/23 05:55:09;;;;;;;12.15;8.30;;;;;;;-5.57;100.00;95213.59;4960297;28;20027;-76
2022/01/23 05:57:34;;;;;;;15.43;9.98;;;;;;;-5.52;100.00;95211.72;4950277;28;20575;-76
2022/01/23 05:59:59;;;;;;;16.15;10.65;;;;;;;-5.49;100.00;95212.38;4964872;28;20027;-75
2022/01/23 06:02:25;;;;;;;15.07;9.57;;;;;;;-5.40;100.00;95221.25;4951879;28;20471;-75
2022/01/23 06:04:51;;;;;;;11.82;9.68;;;;;;;-5.37;100.00;95216.88;4968145;28;20476;-75
2022/01/23 06:07:17;;;;;;;13.02;10.95;;;;;;;-5.31;100.00;95223.34;4969942;28;20109;-74
2022/01/23 06:09:42;;;;;;;10.57;9.48;;;;;;;-5.23;100.00;95225.53;4951905;28;20124;-74
2022/01/23 06:12:08;;;;;;;13.48;9.18;;;;;;;-5.28;100.00;95224.91;4953349;28;20039;-73
2022/01/23 06:14:34;;;;;;;12.40;9.77;;;;;;;-5.30;100.00;95227.53;4968830;28;20038;-73
2022/01/23 06:16:59;;;;;;;10.73;7.82;;;;;;;-5.21;100.00;95229.63;4968345;28;20432;-74
2022/01/23 06:19:24;;;;;;;15.35;8.68;;;;;;;-5.21;100.00;95231.31;4968415;28;20046;-74
2022/01/23 06:21:50;;;;;;;12.05;8.75;;;;;;;-5.20;100.00;95231.22;4968070;28;20484;-74
2022/01/23 06:24:25;;;;;;;12.90;8.45;;;;;;;-5.14;100.00;95230.16;4969060;28;20026;-74
2022/01/23 06:26:53;;;;;;;13.32;9.52;;;;;;;-5.24;100.00;95239.84;4967582;28;20106;-74
2022/01/23 06:29:19;;;;;;;14.27;9.63;;;;;;;-5.11;100.00;95242.63;4969139;28;20401;-74
2022/01/23 06:31:46;;;;;;;11.93;8.93;;;;;;;-5.26;100.00;95236.56;4968637;28;20054;-74
2022/01/23 06:34:13;;;;;;;13.60;8.98;;;;;;;-5.28;100.00;95245.91;4968339;28;20085;-74
2022/01/23 06:36:39;;;;;;;15.50;8.75;;;;;;;-5.33;100.00;95242.78;4948926;28;20027;-75
2022/01/23 06:39:06;;;;;;;13.05;8.13;;;;;;;-5.30;100.00;95244.34;4962060;28;20041;-74
2022/01/23 06:41:32;;;;;;;13.35;8.43;;;;;;;-5.54;100.00;95243.72;4969191;28;20373;-75
2022/01/23 06:43:58;;;;;;;13.80;9.27;;;;;;;-5.53;100.00;95237.81;4951267;28;20023;-75
2022/01/23 06:46:23;;;;;;;12.57;9.45;;;;;;;-5.50;100.00;95232.63;4969678;28;20030;-74
2022/01/23 06:48:49;;;;;;;13.02;8.80;;;;;;;-5.63;100.00;95227.31;4951630;28;20096;-75
2022/01/23 06:51:15;;;;;;;14.65;8.40;;;;;;;-5.49;99.11;95224.19;4952319;28;20416;-75
2022/01/23 06:53:41;;;;;;;15.38;8.65;;;;;;;-5.66;99.12;95234.19;4968623;28;20071;-75
2022/01/23 06:56:06;;;;;;;15.57;9.65;;;;;;;-5.76;99.09;95236.28;4967018;28;20067;-75
2022/01/23 06:58:32;;;;;;;13.48;8.10;;;;;;;-5.59;99.13;95243.13;4968144;28;20034;-75
2022/01/23 07:00:58;;;;;;;13.57;8.38;;;;;;;-5.73;98.52;95235.34;4967520;28;20050;-75
2022/01/23 07:03:23;;;;;;;14.45;9.20;;;;;;;-5.69;98.42;95241.88;4970227;28;20077;-75
2022/01/23 07:05:48;;;;;;;13.43;8.25;;;;;;;-5.62;97.75;95241.53;4967610;28;20034;-75
2022/01/23 07:08:14;;;;;;;17.33;10.60;;;;;;;-5.54;97.28;95247.06;4968400;28;20423;-75
2022/01/23 07:10:39;;;;;;;15.43;10.23;;;;;;;-5.18;95.92;95244.63;4951564;28;20034;-75
2022/01/23 07:13:05;;;;;;;19.27;10.82;;;;;;;-5.00;94.74;95238.72;4967381;28;20031;-75
2022/01/23 07:15:30;;;;;;;15.98;9.98;;;;;;;-4.90;93.99;95239.09;4966144;28;20056;-75
2022/01/23 07:17:55;;;;;;;18.55;11.70;;;;;;;-4.82;92.63;95239.56;4958305;28;20026;-75
2022/01/23 07:20:21;;;;;;;12.65;10.32;;;;;;;-4.46;92.13;95236.97;4949060;28;20035;-73
2022/01/23 07:22:46;;;;;;;18.75;11.18;;;;;;;-4.77;92.68;95235.13;4963018;28;20027;-75
2022/01/23 07:25:12;;;;;;;15.32;9.50;;;;;;;-4.58;94.21;95245.16;4956402;28;20027;-75
2022/01/23 07:27:44;;;;;;;17.42;10.82;;;;;;;-4.66;95.29;95243.00;4961793;28;20130;-75
2022/01/23 07:30:22;;;;;;;14.05;9.82;;;;;;;-4.56;95.99;95244.19;4948753;28;20027;-75
2022/01/23 07:32:48;;;;;;;13.10;8.27;;;;;;;-4.41;95.94;95243.47;4964024;28;20034;-75
2022/01/23 07:35:14;;;;;;;13.30;8.88;;;;;;;-4.46;96.58;95239.50;4947862;28;20296;-75
2022/01/23 07:37:39;;;;;;;13.65;8.70;;;;;;;-4.57;97.09;95237.53;4964823;28;20491;-75
2022/01/23 07:40:06;;;;;;;10.85;8.32;;;;;;;-4.39;96.70;95253.47;4963306;28;20526;-74
2022/01/23 07:42:31;;;;;;;11.68;9.38;;;;;;;-4.27;96.70;95255.44;4964816;28;20045;-74
2022/01/23 07:44:57;;;;;;;12.10;9.73;;;;;;;-4.32;96.59;95254.81;4947037;28;20031;-74
2022/01/23 07:47:23;;;;;;;13.13;8.85;;;;;;;-4.23;97.18;95256.91;4964335;28;20035;-75
2022/01/23 07:49:50;;;;;;;15.18;9.05;;;;;;;-4.16;96.75;95255.72;4965372;28;20113;-75
2022/01/23 07:52:16;;;;;;;16.98;11.32;;;;;;;-4.37;96.82;95244.13;4963815;28;20031;-74
2022/01/23 07:54:42;;;;;;;19.40;12.63;;;;;;;-4.02;96.40;95253.34;4948293;28;20126;-76
2022/01/23 07:57:07;;;;;;;17.08;10.05;;;;;;;-3.83;95.46;95248.16;4962848;28;20592;-76
2022/01/23 07:59:34;;;;;;;15.13;10.05;;;;;;;-4.07;95.71;95254.44;4965140;28;20031;-76
2022/01/23 08:02:00;;;;;;;15.30;9.48;;;;;;;-4.22;96.45;95243.38;4958666;28;20047;-76
2022/01/23 08:04:25;;;;;;;14.07;10.43;;;;;;;-3.86;95.35;95246.63;4954599;28;20467;-75
2022/01/23 08:07:06;;;;;;;17.08;11.40;;;;;;;-3.84;95.18;95249.88;4957493;28;20034;-75
2022/01/23 08:09:32;;;;;;;18.48;12.02;;;;;;;-3.83;94.35;95251.53;4959798;28;20038;-76
2022/01/23 08:11:57;;;;;;;13.57;10.75;;;;;;;-3.52;94.01;95250.75;4954817;28;20109;-75
2022/01/23 08:14:23;;;;;;;15.48;11.05;;;;;;;-3.24;93.28;95250.13;4956139;28;20546;-75
2022/01/23 08:16:48;;;;;;;13.10;10.00;;;;;;;-3.57;93.27;95249.38;4947675;28;20060;-75
2022/01/23 08:19:14;;;;;;;16.23;11.13;;;;;;;-3.56;94.22;95254.34;4960390;28;20034;-75
2022/01/23 08:21:39;;;;;;;17.70;11.27;;;;;;;-3.09;94.97;95233.31;4955543;28;20114;-78
2022/01/23 08:24:05;;;;;;;15.18;11.32;;;;;;;-3.17;93.78;95261.56;4956243;28;20027;-75
2022/01/23 08:26:30;;;;;;;13.88;10.45;;;;;;;-3.24;93.72;95257.72;4954951;28;20107;-75
2022/01/23 08:28:56;;;;;;;14.73;10.07;;;;;;;-3.45;94.35;95254.59;4941554;28;20049;-75
2022/01/23 08:31:21;;;;;;;25.75;17.58;;;;;;;-3.43;94.88;95257.03;4943820;28;20031;-75
2022/01/23 08:33:47;;;;;;;14.02;11.05;;;;;;;-3.38;94.16;95258.47;4961594;28;20102;-75
2022/01/23 08:36:12;;;;;;;16.17;9.52;;;;;;;-3.42;94.41;95263.75;4961634;28;20026;-75
2022/01/23 08:38:38;;;;;;;14.45;10.45;;;;;;;-3.21;94.35;95253.31;4963234;28;20519;-75
2022/01/23 08:43:44;;;;;;;16.30;12.07;;;;;;;-3.23;94.94;95261.88;4965315;28;20074;-74
2022/01/23 08:46:10;;;;;;;14.63;10.50;;;;;;;-3.29;94.75;95257.16;4948052;28;20572;-74
2022/01/23 08:48:35;;;;;;;15.63;12.05;;;;;;;-3.34;93.97;95257.38;4964193;28;20063;-75
2022/01/23 08:51:01;;;;;;;17.35;12.50;;;;;;;-3.26;93.89;95269.66;4964009;28;20121;-75
2022/01/23 08:53:26;;;;;;;17.55;11.05;;;;;;;-3.29;93.69;95275.69;4963337;28;20484;-75
2022/01/23 08:55:52;;;;;;;14.05;10.80;;;;;;;-3.16;93.75;95263.22;4944292;28;20045;-75
2022/01/23 08:58:17;;;;;;;13.98;11.02;;;;;;;-3.20;93.11;95271.84;4927733;29;20024;-75
2022/01/23 09:00:43;;;;;;;14.45;11.10;;;;;;;-3.25;93.11;95268.75;4942151;28;20035;-75
2022/01/23 09:03:08;;;;;;;16.13;11.25;;;;;;;-3.05;93.33;95273.56;4962606;28;20031;-75
2022/01/23 09:05:34;;;;;;;14.73;11.00;;;;;;;-3.26;93.01;95277.25;4930554;28;20066;-75
2022/01/23 09:07:59;;;;;;;18.25;11.75;;;;;;;-3.11;93.62;95268.84;4962042;28;20030;-74
2022/01/23 09:10:29;;;;;;;17.38;12.23;;;;;;;-3.09;92.98;95259.47;4963361;28;20042;-75
2022/01/23 09:13:09;;;;;;;;;;;;;;;-3.16;93.50;95260.69;4948298;28;20026;-75
2022/01/23 09:15:35;;;;;;;15.82;11.02;;;;;;;-3.02;93.50;95254.88;4959746;28;20390;-74
2022/01/23 09:18:01;;;;;;;17.58;10.30;;;;;;;-2.91;92.75;95255.09;4960382;28;20031;-74
2022/01/23 09:20:26;;;;;;;12.30;10.20;;;;;;;-2.88;93.10;95253.22;4963445;28;20037;-75
2022/01/23 09:22:52;;;;;;;11.82;9.35;;;;;;;-2.93;92.26;95244.25;4942326;28;20135;-75
2022/01/23 09:25:18;;;;;;;13.32;10.20;;;;;;;-2.86;91.43;95245.56;4979035;28;20631;-76
2022/01/23 09:27:44;;;;;;;9.38;8.38;;;;;;;-2.98;90.41;95238.59;4962789;28;20034;-75
2022/01/23 09:30:17;;;;;;;11.00;8.57;;;;;;;-2.92;90.92;95241.63;4961816;28;20043;-75
2022/01/23 09:32:44;;;;;;;12.70;8.18;;;;;;;-3.24;90.72;95245.88;4927034;28;20047;-75
2022/01/23 09:35:10;;;;;;;10.18;8.50;;;;;;;-3.11;91.02;95235.91;4959643;28;20404;-76
2022/01/23 09:37:36;;;;;;;13.48;9.52;;;;;;;-3.10;92.07;95242.63;4965550;28;20461;-75
2022/01/23 09:40:05;;;;;;;11.60;8.20;;;;;;;-3.07;91.34;95224.72;4950320;28;20497;-75
2022/01/23 09:42:36;;;;;;;15.02;9.00;;;;;;;-3.11;91.48;95230.06;4951206;28;20576;-75
2022/01/23 09:45:10;;;;;;;17.25;8.30;;;;;;;-2.97;90.25;95225.88;4963355;28;20038;-74
2022/01/23 09:47:37;;;;;;;13.52;8.13;;;;;;;-3.10;91.10;95222.38;4949540;28;20022;-76
2022/01/23 09:50:04;;;;;;;12.38;8.10;;;;;;;-3.07;91.70;95217.13;4963295;28;20027;-75
2022/01/23 09:52:32;;;;;;;13.25;9.07;;;;;;;-3.26;91.56;95206.38;4962967;28;20089;-75
2022/01/23 09:55:05;;;;;;;12.32;8.50;;;;;;;-3.13;91.82;95214.94;4965900;28;20096;-75
2022/01/23 09:57:32;;;;;;;17.70;10.05;;;;;;;-3.01;91.64;95203.31;4965744;28;20125;-75
2022/01/23 09:59:59;;;;;;;15.55;9.90;;;;;;;-2.81;92.26;95211.47;4967487;28;20519;-75
2022/01/23 10:02:26;;;;;;;11.80;8.75;;;;;;;-2.96;91.58;95199.66;4947750;28;20097;-75
2022/01/23 10:04:53;;;;;;;15.25;8.65;;;;;;;-3.05;91.97;95195.06;4966474;28;20484;-75
2022/01/23 10:07:20;;;;;;;13.48;8.65;;;;;;;-3.00;92.40;95208.31;4964795;28;20106;-75
2022/01/23 10:09:52;;;;;;;16.75;9.27;;;;;;;-2.89;92.35;95203.47;4966662;28;20437;-76
2022/01/23 10:12:19;;;;;;;21.83;11.27;;;;;;;-3.11;92.57;95185.28;4966562;28;20113;-75
2022/01/23 10:14:44;;;;;;;15.90;9.60;;;;;;;-2.77;92.16;95177.47;4966221;28;20102;-75
2022/01/23 10:17:10;;;;;;;18.13;10.18;;;;;;;-2.81;91.63;95186.16;4968326;28;20031;-75
2022/01/23 10:19:35;;;;;;;23.17;11.07;;;;;;;-2.68;91.19;95182.03;4962776;28;20034;-75
2022/01/23 10:22:03;;;;;;;12.50;8.35;;;;;;;-2.76;90.53;95176.56;4966570;28;20039;-75
2022/01/23 10:24:29;;;;;;;12.82;8.13;;;;;;;-2.59;91.11;95179.88;4961708;28;20039;-74
2022/01/23 10:26:57;;;;;;;10.32;8.20;;;;;;;-2.69;90.35;95170.25;4950086;28;20062;-74
2022/01/23 10:29:37;;;;;;;8.93;7.45;;;;;;;-2.47;89.61;95166.53;4956567;28;20030;-75
2022/01/23 10:32:12;;;;;;;11.65;7.80;;;;;;;-2.47;89.06;95171.59;4963119;28;20110;-74
2022/01/23 10:34:41;;;;;;;8.38;7.13;;;;;;;-2.62;88.93;95172.44;4957143;28;20039;-75
2022/01/23 10:37:07;;;;;;;12.23;7.28;;;;;;;-2.56;89.68;95174.63;4965591;28;20062;-75
2022/01/23 10:39:47;;;;;;;11.00;7.35;;;;;;;-2.55;89.79;95168.66;4944076;28;20034;-75
2022/01/23 10:47:54;;;;;;;7.90;5.93;;;;;;;-2.84;88.10;95168.59;4965671;28;20515;-76
2022/01/23 10:50:23;;;;;;;10.38;7.72;;;;;;;-3.00;89.01;95162.72;4947593;28;20043;-75
2022/01/23 10:52:51;;;;;;;11.38;6.82;;;;;;;-2.97;87.92;95165.09;4965679;28;20038;-75
2022/01/23 10:55:29;;;;;;;8.88;7.15;;;;;;;-2.86;88.12;95167.84;4963779;28;20023;-75
2022/01/23 10:58:00;;;;;;;9.95;6.93;;;;;;;-2.69;88.19;95160.13;4948646;28;20122;-76
2022/01/23 11:00:35;;;;;;;10.18;7.30;;;;;;;-2.58;87.98;95148.56;4964367;28;20499;-76
2022/01/23 11:03:21;;;;;;;9.10;7.45;;;;;;;-2.53;88.21;95159.25;4962644;28;20043;-76
2022/01/23 11:05:49;;;;;;;10.27;6.75;;;;;;;-2.73;88.21;95140.91;4965351;28;20031;-76
2022/01/23 11:08:23;;;;;;;9.27;7.63;;;;;;;-2.45;87.82;95144.44;4959507;28;20502;-76
2022/01/23 11:11:01;;;;;;;12.77;7.50;;;;;;;-2.41;88.47;95141.59;4964865;28;20113;-76
2022/01/23 11:19:21;;;;;;;7.63;6.68;;;;;;;-2.39;86.84;95121.25;4965323;28;20158;-74
2022/01/23 11:21:47;;;;;;;7.88;6.20;;;;;;;-2.42;85.48;95121.44;4948026;28;20624;-75
2022/01/23 11:24:13;;;;;;;10.98;6.63;;;;;;;-2.43;85.89;95122.34;4962964;28;20030;-75
2022/01/23 11:26:39;;;;;;;8.93;6.47;;;;;;;-2.23;84.68;95114.38;4963130;28;20027;-75
2022/01/23 11:29:10;;;;;;;11.70;6.28;;;;;;;-2.36;84.83;95109.22;4967751;28;20042;-75
2022/01/23 11:31:38;;;;;;;7.93;6.07;;;;;;;-2.34;83.92;95101.50;4947211;28;20141;-75
2022/01/23 11:34:06;;;;;;;9.38;6.95;;;;;;;-2.38;84.45;95105.97;4946884;28;20058;-76
2022/01/23 11:36:31;;;;;;;8.70;5.80;;;;;;;-2.44;83.61;95098.69;4945904;28;20034;-75
2022/01/23 11:39:04;;;;;;;8.95;5.95;;;;;;;-2.36;83.61;95098.25;4966682;28;20404;-75
2022/01/23 11:55:34;;;;;;;8.93;5.30;;;;;;;-2.28;83.33;95088.50;4956591;28;20101;-76
2022/01/23 11:58:01;;;;;;;10.23;5.22;;;;;;;-2.46;83.84;95080.25;4950153;28;20093;-75
2022/01/23 12:00:30;;;;;;;10.27;5.90;;;;;;;-2.44;84.52;95080.94;4963933;28;20061;-76
2022/01/23 12:03:10;;;;;;;9.38;5.95;;;;;;;-2.43;85.52;95076.69;4964253;28;20046;-76
2022/01/23 12:05:39;;;;;;;6.38;5.65;;;;;;;-2.44;84.81;95088.56;4967125;28;20750;-75
2022/01/23 12:08:27;;;;;;;9.40;4.97;;;;;;;-2.44;85.25;95078.41;4948788;28;20129;-75
2022/01/23 12:16:31;;;;;;;7.00;5.50;;;;;;;-2.42;86.13;95084.22;4963952;28;20031;-75
2022/01/23 12:19:16;;;;;;;;;;;;;;;-2.41;86.51;95085.84;4982162;28;20037;-75
2022/01/23 12:21:41;;;;;;;6.93;5.07;;;;;;;-2.46;85.79;95087.03;4963749;28;20347;-75
2022/01/23 12:24:09;;;;;;;7.25;4.80;;;;;;;-2.78;86.32;95073.69;4967458;28;20019;-76
2022/01/23 12:26:35;;;;;;;7.05;4.82;;;;;;;-2.59;86.50;95096.25;4965056;28;20472;-75
2022/01/23 12:29:12;;;;;;;6.30;5.43;;;;;;;-2.52;86.87;95089.91;4962846;28;20030;-76
2022/01/23 12:31:38;;;;;;;10.30;5.55;;;;;;;-2.64;86.84;95093.16;4963644;28;20027;-75
2022/01/23 12:34:04;;;;;;;7.53;5.38;;;;;;;-2.73;87.36;95087.72;4947137;28;20042;-75
2022/01/23 12:36:32;;;;;;;5.95;4.85;;;;;;;-2.93;87.41;95082.16;4964976;28;20431;-75
2022/01/23 12:39:06;;;;;;;6.93;4.93;;;;;;;-2.64;89.21;95083.03;4979790;28;20125;-75
2022/01/23 12:41:37;;;;;;;5.82;5.20;;;;;;;-2.67;88.16;95079.78;4967324;28;20027;-75
2022/01/23 12:44:06;;;;;;;;;;;;;;;-2.72;87.96;95080.94;4968562;28;20377;-75
2022/01/23 12:46:52;;;;;;;8.95;6.07;;;;;;;-2.54;88.85;95089.22;4965539;28;19996;-75
2022/01/23 12:49:17;;;;;;;7.18;6.38;;;;;;;-2.77;90.87;95093.88;4966220;28;20828;-75
2022/01/23 12:51:46;;;;;;;7.45;5.72;;;;;;;-2.46;91.46;95092.09;4957729;28;20105;-75
2022/01/23 12:54:33;;;;;;;7.57;5.47;;;;;;;-2.75;91.13;95093.78;4966775;28;20026;-74
2022/01/23 12:57:12;;;;;;;6.88;6.10;;;;;;;-2.89;91.29;95084.41;4947762;28;20129;-75
2022/01/23 12:59:37;;;;;;;8.85;5.88;;;;;;;-2.73;90.50;95090.25;4931374;28;20903;-75
2022/01/23 13:02:12;;;;;;;9.13;5.78;;;;;;;-2.63;90.37;95089.75;4960844;28;20043;-75
2022/01/23 13:04:41;;;;;;;9.68;5.65;;;;;;;-2.56;90.96;95091.00;4950068;28;20062;-75
2022/01/23 13:07:24;;;;;;;9.07;5.65;;;;;;;-2.52;90.61;95103.41;4968853;28;20030;-75
2022/01/23 13:09:59;;;;;;;9.07;5.80;;;;;;;-2.53;91.86;95111.91;4950511;28;20030;-75
2022/01/23 13:12:47;;;;;;;7.68;5.93;;;;;;;-2.72;92.20;95096.13;4968552;28;20033;-75
2022/01/23 13:32:10;;;;;;;9.10;5.97;;;;;;;-2.91;94.00;95093.84;4965077;28;20054;-75
2022/01/23 13:35:05;;;;;;;8.45;6.07;;;;;;;-2.85;93.71;95092.66;4981222;28;20105;-75
2022/01/23 13:37:34;;;;;;;7.00;5.70;;;;;;;-2.89;92.51;95101.38;4970387;28;20507;-75
2022/01/23 13:40:05;;;;;;;10.03;6.20;;;;;;;-2.74;92.30;95097.94;4953596;28;20029;-75
2022/01/23 13:48:33;;;;;;;10.05;6.38;;;;;;;-2.84;92.64;95105.25;4969986;28;20050;-75
2022/01/23 14:04:28;;;;;;;7.63;6.25;;;;;;;-3.13;94.81;95110.31;4950310;28;20039;-75
2022/01/23 14:06:54;;;;;;;9.15;6.65;;;;;;;-3.19;94.54;95101.34;4953076;28;20032;-75
2022/01/23 14:09:21;;;;;;;8.60;6.07;;;;;;;-3.14;95.73;95101.06;4966948;28;20037;-75
2022/01/23 14:11:47;;;;;;;6.60;5.53;;;;;;;-3.27;95.95;95106.00;4969084;28;20443;-75
2022/01/23 14:14:23;;;;;;;8.73;5.68;;;;;;;-3.24;97.37;95104.13;4968796;28;20023;-75
2022/01/23 14:16:51;;;;;;;8.30;5.43;;;;;;;-3.37;97.24;95100.63;4942706;28;20037;-75
2022/01/23 14:19:25;;;;;;;11.60;6.35;;;;;;;-3.28;96.50;95109.47;4951220;28;20055;-75
2022/01/23 14:21:53;;;;;;;10.57;6.82;;;;;;;-3.33;97.08;95114.75;4961222;28;20626;-76
2022/01/23 14:24:35;;;;;;;6.97;6.20;;;;;;;-3.25;97.01;95109.28;4969089;28;20031;-75
2022/01/23 14:27:08;;;;;;;9.70;6.28;;;;;;;-3.26;96.58;95117.78;4950773;28;20031;-75
2022/01/23 14:30:04;;;;;;;9.07;5.57;;;;;;;-3.38;96.85;95115.91;4954017;28;20031;-75
2022/01/23 14:33:04;;;;;;;6.40;5.53;;;;;;;-3.39;96.75;95121.88;4960919;28;20054;-75
2022/01/23 14:35:29;;;;;;;6.20;5.28;;;;;;;-3.41;96.62;95123.69;4968647;28;20046;-75
2022/01/23 14:38:15;;;;;;;7.53;5.90;;;;;;;-3.39;96.68;95132.00;4953760;28;20666;-76
2022/01/23 14:41:09;;;;;;;9.82;6.10;;;;;;;-3.52;98.57;95133.53;4969388;28;20033;-75
2022/01/23 14:43:37;;;;;;;10.93;7.75;;;;;;;-3.69;100.00;95129.38;4952682;28;20027;-75
2022/01/23 14:46:05;;;;;;;14.55;9.27;;;;;;;-3.73;100.00;95143.09;4953424;28;20038;-75
2022/01/23 14:48:38;;;;;;;13.93;8.98;;;;;;;-3.89;100.00;95148.16;4952317;28;20038;-75
2022/01/23 14:51:04;;;;;;;10.50;7.88;;;;;;;-4.06;100.00;95143.16;4969906;28;20109;-75
2022/01/23 14:53:34;;;;;;;11.23;8.32;;;;;;;-4.17;100.00;95134.50;4969334;28;20034;-75
2022/01/23 14:56:00;;;;;;;;;;;;;;;-4.15;100.00;95151.19;4969391;28;20085;-75
2022/01/23 14:58:29;;;;;;;12.57;8.75;;;;;;;-4.05;100.00;95154.91;4969473;28;19949;-75
2022/01/23 15:00:56;;;;;;;9.93;8.05;;;;;;;-4.08;100.00;95165.16;4968241;28;20420;-76
2022/01/23 15:03:23;;;;;;;12.50;8.30;;;;;;;-4.20;100.00;95170.00;4985789;28;20023;-75
2022/01/23 15:05:48;;;;;;;10.88;8.60;;;;;;;-4.06;100.00;95170.94;4968350;28;20527;-76
2022/01/23 15:08:20;;;;;;;9.80;7.55;;;;;;;-4.07;100.00;95173.53;4969324;28;20027;-76
2022/01/23 15:10:48;;;;;;;14.88;8.23;;;;;;;-3.91;100.00;95170.16;4968821;28;20043;-76
2022/01/23 15:13:14;;;;;;;11.00;7.30;;;;;;;-4.15;100.00;95171.44;4965478;28;20978;-76
2022/01/23 15:15:39;;;;;;;9.82;8.20;;;;;;;-4.04;100.00;95173.38;4949514;28;20050;-76
2022/01/23 15:18:05;;;;;;;10.10;7.57;;;;;;;-4.07;100.00;95173.53;4964395;28;20508;-76
2022/01/23 15:20:33;;;;;;;12.05;8.88;;;;;;;-4.07;100.00;95176.88;4965970;28;20035;-76
2022/01/23 15:23:02;;;;;;;11.00;8.63;;;;;;;-3.92;100.00;95182.91;4956294;28;20015;-76
2022/01/23 15:25:28;;;;;;;13.50;8.95;;;;;;;-4.31;100.00;95170.56;4958961;28;20491;-76
2022/01/23 15:27:53;;;;;;;16.70;8.77;;;;;;;-4.19;100.00;95177.53;4947559;28;20035;-75
2022/01/23 15:30:21;;;;;;;14.35;10.32;;;;;;;-4.12;100.00;95183.09;4964823;28;20527;-75
2022/01/23 15:32:46;;;;;;;16.08;10.55;;;;;;;-4.16;100.00;95179.06;4948737;28;20023;-76
2022/01/23 15:35:13;;;;;;;13.35;10.15;;;;;;;-4.17;100.00;95188.34;4962814;28;20034;-76
2022/01/23 15:37:40;;;;;;;14.70;9.05;;;;;;;-4.13;100.00;95187.31;4964702;28;20034;-75
2022/01/23 15:40:11;;;;;;;10.95;9.48;;;;;;;-4.11;100.00;95182.19;4960167;28;20053;-76
2022/01/23 15:42:38;;;;;;;12.02;7.82;;;;;;;-4.28;100.00;95190.63;4961879;28;20030;-76
2022/01/23 15:45:06;;;;;;;12.75;9.50;;;;;;;-4.16;100.00;95197.59;4962520;28;20029;-76
2022/01/23 15:47:32;;;;;;;13.63;9.13;;;;;;;-4.09;100.00;95203.97;4964273;28;20487;-76
2022/01/23 15:50:07;;;;;;;11.63;9.07;;;;;;;-4.18;100.00;95193.50;4964023;28;20026;-76
2022/01/23 15:52:32;;;;;;;11.43;8.95;;;;;;;-4.28;100.00;95199.03;4962868;28;20130;-76
2022/01/23 15:54:58;;;;;;;8.77;7.53;;;;;;;-4.33;100.00;95208.53;4944188;28;20051;-76
2022/01/23 15:57:23;;;;;;;13.68;7.88;;;;;;;-4.39;100.00;95205.47;4939040;28;20113;-76
2022/01/23 15:59:50;;;;;;;10.57;9.45;;;;;;;-4.33;100.00;95207.69;4947487;28;20104;-76
2022/01/23 16:02:15;;;;;;;11.85;8.18;;;;;;;-4.39;100.00;95203.78;4962321;28;20093;-76
2022/01/23 16:04:41;;;;;;;15.40;9.75;;;;;;;-4.32;100.00;95205.13;4964152;28;20504;-76
2022/01/23 16:07:12;;;;;;;13.02;9.30;;;;;;;-4.37;100.00;95204.53;4962956;28;20030;-75
2022/01/23 16:09:38;;;;;;;14.43;9.20;;;;;;;-4.32;100.00;95212.69;4946456;28;21012;-76
2022/01/23 16:12:04;;;;;;;11.05;9.32;;;;;;;-4.24;100.00;95219.09;4947923;28;20070;-76
2022/01/23 16:14:30;;;;;;;11.70;8.88;;;;;;;-4.31;100.00;95208.47;4957783;28;20049;-76
2022/01/23 16:16:55;;;;;;;12.77;9.07;;;;;;;-4.22;100.00;95218.13;4947768;28;20030;-76
2022/01/23 16:19:21;;;;;;;13.15;9.50;;;;;;;-4.19;100.00;95219.66;4942303;28;20528;-76
2022/01/23 16:21:47;;;;;;;15.82;10.02;;;;;;;-4.29;100.00;95215.06;4941797;28;20042;-75
2022/01/23 16:24:13;;;;;;;13.50;9.57;;;;;;;-4.27;100.00;95223.38;4962287;28;20054;-76
2022/01/23 16:26:38;;;;;;;14.63;10.77;;;;;;;-4.38;100.00;95215.53;4964268;28;20528;-75
2022/01/23 16:29:04;;;;;;;14.00;9.30;;;;;;;-4.21;100.00;95227.34;4964329;28;20117;-76
2022/01/23 16:31:30;;;;;;;13.43;9.93;;;;;;;-4.37;100.00;95218.88;4962747;28;20419;-76
2022/01/23 16:33:56;;;;;;;15.32;9.80;;;;;;;-4.37;100.00;95224.75;4964197;28;20034;-76
2022/01/23 16:36:22;;;;;;;12.07;9.05;;;;;;;-4.32;100.00;95222.81;4963131;28;20393;-76
2022/01/23 16:38:48;;;;;;;12.80;9.55;;;;;;;-4.34;100.00;95231.34;4963549;28;20038;-76
2022/01/23 16:41:14;;;;;;;12.65;10.35;;;;;;;-4.33;100.00;95215.28;4964623;28;20069;-76
2022/01/23 16:43:40;;;;;;;18.23;10.10;;;;;;;-4.41;100.00;95220.72;4964995;28;20496;-76
2022/01/23 16:46:06;;;;;;;13.77;9.95;;;;;;;-4.30;100.00;95225.22;4962933;28;20070;-76
2022/01/23 16:48:32;;;;;;;13.23;9.68;;;;;;;-4.41;100.00;95222.44;4962068;28;20050;-76
2022/01/23 16:51:00;;;;;;;16.25;9.13;;;;;;;-4.42;100.00;95231.72;4936453;28;20026;-76
2022/01/23 16:53:25;;;;;;;15.77;11.32;;;;;;;-4.30;100.00;95232.81;4956297;28;20027;-77
2022/01/23 16:55:56;;;;;;;19.17;11.98;;;;;;;-4.29;100.00;95234.47;4961362;28;20082;-76
2022/01/23 16:58:32;;;;;;;20.17;11.93;;;;;;;-4.19;100.00;95245.75;4956047;28;20032;-76
2022/01/23 17:00:58;;;;;;;17.55;9.45;;;;;;;-4.28;100.00;95241.16;4946617;28;20098;-76
2022/01/23 17:03:25;;;;;;;15.57;9.63;;;;;;;-4.30;100.00;95236.16;4944084;28;20027;-76
2022/01/23 17:05:51;;;;;;;11.27;9.23;;;;;;;-4.45;100.00;95233.56;4960624;28;20081;-76
2022/01/23 17:08:17;;;;;;;17.15;10.85;;;;;;;-4.42;100.00;95239.28;4942608;28;20118;-76
2022/01/23 17:10:43;;;;;;;19.65;10.60;;;;;;;-4.42;100.00;95241.81;4960798;28;20134;-75
2022/01/23 17:13:09;;;;;;;15.60;11.25;;;;;;;-4.44;100.00;95243.63;4960656;28;20023;-76
2022/01/23 17:15:35;;;;;;;15.93;10.07;;;;;;;-4.56;100.00;95233.28;4960619;28;20041;-77
2022/01/23 17:18:01;;;;;;;17.77;11.90;;;;;;;-4.74;100.00;95221.53;4963110;28;20031;-76
2022/01/23 17:20:26;;;;;;;13.50;9.50;;;;;;;-4.68;100.00;95216.19;4963303;28;20114;-76
2022/01/23 17:22:52;;;;;;;14.75;9.25;;;;;;;-4.58;100.00;95214.84;4962912;28;20137;-76
2022/01/23 17:25:17;;;;;;;14.30;8.43;;;;;;;-4.67;100.00;95210.25;4963912;28;20033;-76
2022/01/23 17:27:44;;;;;;;12.60;9.05;;;;;;;-4.54;100.00;95217.16;4963082;28;20093;-76
2022/01/23 17:30:12;;;;;;;16.48;9.43;;;;;;;-4.46;100.00;95230.22;4948565;28;20042;-76
2022/01/23 17:32:38;;;;;;;12.65;8.80;;;;;;;-4.50;100.00;95220.38;4962312;28;20042;-76
2022/01/23 17:35:05;;;;;;;12.75;8.82;;;;;;;-4.57;100.00;95212.25;4947669;28;20060;-76
2022/01/23 17:37:30;;;;;;;19.27;8.57;;;;;;;-4.59;100.00;95230.91;4947142;28;20098;-77
2022/01/23 17:39:56;;;;;;;10.20;7.80;;;;;;;-4.47;100.00;95231.13;4947661;28;20152;-76
2022/01/23 17:42:21;;;;;;;11.10;8.25;;;;;;;-4.61;100.00;95227.63;4946934;28;20038;-76